Terminal Aerodrome Forecast
Issued by NWS Spokane, WA

Home | Current Version | Previous Version | Text Only | Print | Product List | Glossary On
Versions: 1 2 3 4 5 6 7 8 9 10 11 12 13 14 15 16 17
000
FTUS46 KOTX 161746 CCA
TAFEAT
TAF COR
KEAT 161746Z 1618/1718 32003KT 4SM BR VCSH OVC015
     FM162000 29002KT P6SM VCSH OVC019
     FM170400 VRB02KT 4SM BR VCSH OVC015
     FM171200 VRB02KT 4SM BR VCSH OVC006 PROB30 1714/1718 2SM
      -FZRAPL=

USA.gov is the U.S. government's official web portal to all federal, state and local government web resources and services.